sensor_id;sensor_type;location;lat;lon;timestamp;pressure;altitude;pressure_sealevel;temperature;humidity
43621;BME280;29213;50.770;7.298;2023-11-21T00:00:02;100258.34;;;8.34;68.09
43621;BME280;29213;50.770;7.298;2023-11-21T00:02:29;100189.25;;;7.91;68.06
43621;BME280;29213;50.770;7.298;2023-11-21T00:04:54;100216.41;;;8.11;67.92
43621;BME280;29213;50.770;7.298;2023-11-21T00:07:20;100227.03;;;8.11;67.97
43621;BME280;29213;50.770;7.298;2023-11-21T00:09:46;100192.72;;;7.92;68.00
43621;BME280;29213;50.770;7.298;2023-11-21T00:12:12;100206.72;;;8.02;68.33
43621;BME280;29213;50.770;7.298;2023-11-21T00:14:39;100228.03;;;8.10;68.21
43621;BME280;29213;50.770;7.298;2023-11-21T00:17:05;100226.94;;;8.03;68.24
43621;BME280;29213;50.770;7.298;2023-11-21T00:19:31;100221.81;;;8.01;68.10
43621;BME280;29213;50.770;7.298;2023-11-21T00:21:56;100259.13;;;8.26;68.24
43621;BME280;29213;50.770;7.298;2023-11-21T00:24:23;100194.84;;;7.88;68.27
43621;BME280;29213;50.770;7.298;2023-11-21T00:26:50;100228.47;;;8.06;68.13
43621;BME280;29213;50.770;7.298;2023-11-21T00:29:18;100263.75;;;8.24;68.02
43621;BME280;29213;50.770;7.298;2023-11-21T00:31:44;100222.25;;;7.97;67.90
43621;BME280;29213;50.770;7.298;2023-11-21T00:34:11;100258.91;;;8.20;68.28
43621;BME280;29213;50.770;7.298;2023-11-21T00:36:37;100261.50;;;8.11;68.05
43621;BME280;29213;50.770;7.298;2023-11-21T00:39:02;100245.81;;;8.00;67.98
43621;BME280;29213;50.770;7.298;2023-11-21T00:41:28;100198.94;;;7.56;68.02
43621;BME280;29213;50.770;7.298;2023-11-21T00:43:54;100258.88;;;7.93;67.90
43621;BME280;29213;50.770;7.298;2023-11-21T00:46:20;100267.66;;;7.94;68.10
43621;BME280;29213;50.770;7.298;2023-11-21T00:48:46;100275.28;;;7.97;67.88
43621;BME280;29213;50.770;7.298;2023-11-21T00:51:11;100274.63;;;7.95;67.70
43621;BME280;29213;50.770;7.298;2023-11-21T00:53:36;100217.84;;;7.61;67.61
43621;BME280;29213;50.770;7.298;2023-11-21T00:56:02;100251.00;;;7.83;67.84
43621;BME280;29213;50.770;7.298;2023-11-21T00:58:27;100237.16;;;7.71;67.79
43621;BME280;29213;50.770;7.298;2023-11-21T01:00:53;100279.94;;;7.95;68.15
43621;BME280;29213;50.770;7.298;2023-11-21T01:03:18;100234.97;;;7.67;67.94
43621;BME280;29213;50.770;7.298;2023-11-21T01:05:44;100263.38;;;7.74;68.16
43621;BME280;29213;50.770;7.298;2023-11-21T01:08:11;100269.06;;;7.80;68.20
43621;BME280;29213;50.770;7.298;2023-11-21T01:10:36;100285.34;;;7.85;68.08
43621;BME280;29213;50.770;7.298;2023-11-21T01:13:02;100280.19;;;7.83;67.96
43621;BME280;29213;50.770;7.298;2023-11-21T01:15:30;100288.13;;;7.83;68.13
43621;BME280;29213;50.770;7.298;2023-11-21T01:17:55;100285.25;;;7.76;68.11
43621;BME280;29213;50.770;7.298;2023-11-21T01:20:21;100311.91;;;7.93;67.97
43621;BME280;29213;50.770;7.298;2023-11-21T01:22:46;100319.72;;;7.95;67.93
43621;BME280;29213;50.770;7.298;2023-11-21T01:25:14;100294.84;;;7.77;67.88
43621;BME280;29213;50.770;7.298;2023-11-21T01:27:41;100325.47;;;7.90;67.67
43621;BME280;29213;50.770;7.298;2023-11-21T01:30:07;100302.16;;;7.75;67.74
43621;BME280;29213;50.770;7.298;2023-11-21T01:32:36;100323.72;;;7.81;68.09
43621;BME280;29213;50.770;7.298;2023-11-21T01:35:01;100306.78;;;7.73;68.15
43621;BME280;29213;50.770;7.298;2023-11-21T01:37:27;100296.47;;;7.70;68.04
43621;BME280;29213;50.770;7.298;2023-11-21T01:39:56;100322.88;;;7.80;67.99
43621;BME280;29213;50.770;7.298;2023-11-21T01:42:21;100311.09;;;7.74;67.67
43621;BME280;29213;50.770;7.298;2023-11-21T01:44:46;100300.09;;;7.69;68.08
43621;BME280;29213;50.770;7.298;2023-11-21T01:47:13;100299.56;;;7.66;68.01
43621;BME280;29213;50.770;7.298;2023-11-21T01:49:39;100278.22;;;7.49;68.12
43621;BME280;29213;50.770;7.298;2023-11-21T01:52:05;100290.53;;;7.58;68.21
43621;BME280;29213;50.770;7.298;2023-11-21T01:54:32;100293.75;;;7.62;68.15
43621;BME280;29213;50.770;7.298;2023-11-21T01:56:58;100308.66;;;7.63;68.07
43621;BME280;29213;50.770;7.298;2023-11-21T01:59:34;100309.66;;;7.62;67.87
43621;BME280;29213;50.770;7.298;2023-11-21T02:02:00;100341.81;;;7.85;67.81
43621;BME280;29213;50.770;7.298;2023-11-21T02:04:25;100283.06;;;7.54;67.63
43621;BME280;29213;50.770;7.298;2023-11-21T02:06:51;100302.22;;;7.66;67.48
43621;BME280;29213;50.770;7.298;2023-11-21T02:09:17;100321.00;;;7.72;67.45
43621;BME280;29213;50.770;7.298;2023-11-21T02:11:43;100347.13;;;7.85;67.43
43621;BME280;29213;50.770;7.298;2023-11-21T02:14:09;100298.13;;;7.53;67.54
43621;BME280;29213;50.770;7.298;2023-11-21T02:16:35;100342.91;;;7.74;67.68
43621;BME280;29213;50.770;7.298;2023-11-21T02:19:03;100362.88;;;7.87;67.63
43621;BME280;29213;50.770;7.298;2023-11-21T02:21:32;100358.19;;;7.81;67.74
43621;BME280;29213;50.770;7.298;2023-11-21T02:23:57;100288.50;;;7.34;67.71
43621;BME280;29213;50.770;7.298;2023-11-21T02:26:23;100315.72;;;7.54;67.73
43621;BME280;29213;50.770;7.298;2023-11-21T02:28:50;100366.16;;;7.81;67.27
43621;BME280;29213;50.770;7.298;2023-11-21T02:31:18;100305.72;;;7.48;67.63
43621;BME280;29213;50.770;7.298;2023-11-21T02:33:44;100367.53;;;7.85;67.58
43621;BME280;29213;50.770;7.298;2023-11-21T02:36:09;100357.44;;;7.70;67.59
43621;BME280;29213;50.770;7.298;2023-11-21T02:38:35;100323.66;;;7.54;67.21
43621;BME280;29213;50.770;7.298;2023-11-21T02:41:00;100382.31;;;7.87;67.24
43621;BME280;29213;50.770;7.298;2023-11-21T02:43:25;100345.06;;;7.61;67.22
43621;BME280;29213;50.770;7.298;2023-11-21T02:45:51;100366.22;;;7.71;67.33
43621;BME280;29213;50.770;7.298;2023-11-21T02:48:16;100288.56;;;7.24;67.28
43621;BME280;29213;50.770;7.298;2023-11-21T02:50:42;100379.56;;;7.79;67.22
43621;BME280;29213;50.770;7.298;2023-11-21T02:53:08;100375.38;;;7.76;67.36
43621;BME280;29213;50.770;7.298;2023-11-21T02:55:36;100381.53;;;7.77;67.40
43621;BME280;29213;50.770;7.298;2023-11-21T02:58:01;100382.88;;;7.81;67.45
43621;BME280;29213;50.770;7.298;2023-11-21T03:00:27;100355.66;;;7.61;67.54
43621;BME280;29213;50.770;7.298;2023-11-21T03:02:55;100342.22;;;7.54;67.59
43621;BME280;29213;50.770;7.298;2023-11-21T03:05:21;100339.69;;;7.53;67.39
43621;BME280;29213;50.770;7.298;2023-11-21T03:07:46;100338.25;;;7.58;67.45
43621;BME280;29213;50.770;7.298;2023-11-21T03:10:12;100385.09;;;7.86;67.43
43621;BME280;29213;50.770;7.298;2023-11-21T03:12:38;100320.09;;;7.45;67.31
43621;BME280;29213;50.770;7.298;2023-11-21T03:15:05;100321.44;;;7.49;67.20
43621;BME280;29213;50.770;7.298;2023-11-21T03:17:31;100226.22;;;6.83;67.16
43621;BME280;29213;50.770;7.298;2023-11-21T03:19:56;100356.38;;;7.63;67.34
43621;BME280;29213;50.770;7.298;2023-11-21T03:22:22;100344.69;;;7.56;67.08
43621;BME280;29213;50.770;7.298;2023-11-21T03:24:48;100344.69;;;7.56;67.08
43621;BME280;29213;50.770;7.298;2023-11-21T03:27:14;100392.19;;;7.85;66.94
43621;BME280;29213;50.770;7.298;2023-11-21T03:29:39;100346.66;;;7.54;66.88
43621;BME280;29213;50.770;7.298;2023-11-21T03:32:05;100408.13;;;7.85;66.93
43621;BME280;29213;50.770;7.298;2023-11-21T03:34:32;100412.22;;;7.80;67.15
43621;BME280;29213;50.770;7.298;2023-11-21T03:36:57;100371.66;;;7.51;67.06
43621;BME280;29213;50.770;7.298;2023-11-21T03:39:23;100410.00;;;7.75;67.35
43621;BME280;29213;50.770;7.298;2023-11-21T03:41:51;100325.78;;;7.22;67.19
43621;BME280;29213;50.770;7.298;2023-11-21T03:44:17;100329.03;;;7.16;67.78
43621;BME280;29213;50.770;7.298;2023-11-21T03:46:43;100419.38;;;7.69;67.59
43621;BME280;29213;50.770;7.298;2023-11-21T03:49:09;100403.56;;;7.59;67.50
43621;BME280;29213;50.770;7.298;2023-11-21T03:51:36;100430.38;;;7.74;67.37
43621;BME280;29213;50.770;7.298;2023-11-21T03:54:02;100389.81;;;7.46;67.24
43621;BME280;29213;50.770;7.298;2023-11-21T03:56:28;100404.50;;;7.58;67.06
43621;BME280;29213;50.770;7.298;2023-11-21T03:58:53;100409.81;;;7.58;67.28
43621;BME280;29213;50.770;7.298;2023-11-21T04:01:23;100429.84;;;7.71;67.37
43621;BME280;29213;50.770;7.298;2023-11-21T04:03:49;100427.63;;;7.66;67.24
43621;BME280;29213;50.770;7.298;2023-11-21T04:06:15;100396.09;;;7.45;67.29
43621;BME280;29213;50.770;7.298;2023-11-21T04:08:43;100433.00;;;7.56;67.31
43621;BME280;29213;50.770;7.298;2023-11-21T04:11:09;100405.44;;;7.39;67.21
43621;BME280;29213;50.770;7.298;2023-11-21T04:13:37;100419.94;;;7.45;67.36
43621;BME280;29213;50.770;7.298;2023-11-21T04:16:05;100424.09;;;7.47;67.48
43621;BME280;29213;50.770;7.298;2023-11-21T04:18:30;100447.91;;;7.57;67.17
43621;BME280;29213;50.770;7.298;2023-11-21T04:20:56;100409.69;;;7.32;67.40
43621;BME280;29213;50.770;7.298;2023-11-21T04:23:22;100433.72;;;7.48;67.37
43621;BME280;29213;50.770;7.298;2023-11-21T04:25:47;100435.69;;;7.46;67.31
43621;BME280;29213;50.770;7.298;2023-11-21T04:28:12;100479.91;;;7.74;67.42
43621;BME280;29213;50.770;7.298;2023-11-21T04:30:38;100421.53;;;7.38;67.24
43621;BME280;29213;50.770;7.298;2023-11-21T04:33:04;100479.91;;;7.74;67.15
43621;BME280;29213;50.770;7.298;2023-11-21T04:35:30;100446.16;;;7.48;67.30
43621;BME280;29213;50.770;7.298;2023-11-21T04:37:55;100469.50;;;7.62;67.27
43621;BME280;29213;50.770;7.298;2023-11-21T04:40:22;100472.16;;;7.62;67.24
43621;BME280;29213;50.770;7.298;2023-11-21T04:42:48;100483.44;;;7.65;67.56
43621;BME280;29213;50.770;7.298;2023-11-21T04:45:13;100499.31;;;7.74;67.51
43621;BME280;29213;50.770;7.298;2023-11-21T04:47:39;100454.09;;;7.48;67.38
43621;BME280;29213;50.770;7.298;2023-11-21T04:50:05;100454.09;;;7.48;67.27
43621;BME280;29213;50.770;7.298;2023-11-21T04:52:31;100478.31;;;7.63;67.51
43621;BME280;29213;50.770;7.298;2023-11-21T04:54:57;100461.59;;;7.53;67.41
43621;BME280;29213;50.770;7.298;2023-11-21T04:57:24;100437.09;;;7.41;67.44
43621;BME280;29213;50.770;7.298;2023-11-21T04:59:49;100478.97;;;7.65;67.81
43621;BME280;29213;50.770;7.298;2023-11-21T05:02:15;100448.09;;;7.46;67.50
43621;BME280;29213;50.770;7.298;2023-11-21T05:04:41;100430.59;;;7.35;67.79
43621;BME280;29213;50.770;7.298;2023-11-21T05:07:08;100505.81;;;7.80;67.58
43621;BME280;29213;50.770;7.298;2023-11-21T05:09:34;100425.72;;;7.30;67.37
43621;BME280;29213;50.770;7.298;2023-11-21T05:12:01;100485.72;;;7.59;67.67
43621;BME280;29213;50.770;7.298;2023-11-21T05:14:27;100469.84;;;7.49;67.90
43621;BME280;29213;50.770;7.298;2023-11-21T05:16:52;100508.47;;;7.80;67.89
43621;BME280;29213;50.770;7.298;2023-11-21T05:19:18;100504.84;;;7.81;68.02
43621;BME280;29213;50.770;7.298;2023-11-21T05:21:43;100462.41;;;7.53;67.91
43621;BME280;29213;50.770;7.298;2023-11-21T05:24:08;100481.78;;;7.63;67.70
43621;BME280;29213;50.770;7.298;2023-11-21T05:26:34;100473.41;;;7.58;67.77
43621;BME280;29213;50.770;7.298;2023-11-21T05:29:00;100519.09;;;7.80;67.66
43621;BME280;29213;50.770;7.298;2023-11-21T05:31:25;100491.00;;;7.59;67.89
43621;BME280;29213;50.770;7.298;2023-11-21T05:33:52;100488.06;;;7.62;67.55
43621;BME280;29213;50.770;7.298;2023-11-21T05:36:18;100468.19;;;7.48;67.46
43621;BME280;29213;50.770;7.298;2023-11-21T05:38:43;100509.94;;;7.65;67.33
43621;BME280;29213;50.770;7.298;2023-11-21T05:41:09;100477.66;;;7.51;67.29
43621;BME280;29213;50.770;7.298;2023-11-21T05:43:39;100506.34;;;7.66;67.45
43621;BME280;29213;50.770;7.298;2023-11-21T05:46:04;100475.03;;;7.41;67.71
43621;BME280;29213;50.770;7.298;2023-11-21T05:48:30;100518.88;;;7.63;67.72
43621;BME280;29213;50.770;7.298;2023-11-21T05:50:56;100506.34;;;7.56;68.04
43621;BME280;29213;50.770;7.298;2023-11-21T05:53:22;100491.47;;;7.45;67.92
43621;BME280;29213;50.770;7.298;2023-11-21T05:55:47;100488.97;;;7.43;67.68
43621;BME280;29213;50.770;7.298;2023-11-21T05:58:13;100515.44;;;7.53;67.90
43621;BME280;29213;50.770;7.298;2023-11-21T06:00:39;100545.09;;;7.67;67.90
43621;BME280;29213;50.770;7.298;2023-11-21T06:03:04;100562.09;;;7.74;67.81
43621;BME280;29213;50.770;7.298;2023-11-21T06:05:32;100547.03;;;7.65;67.81
43621;BME280;29213;50.770;7.298;2023-11-21T06:07:58;100565.06;;;7.71;67.76
43621;BME280;29213;50.770;7.298;2023-11-21T06:10:25;100532.19;;;7.54;67.88
43621;BME280;29213;50.770;7.298;2023-11-21T06:12:51;100549.88;;;7.63;67.85
43621;BME280;29213;50.770;7.298;2023-11-21T06:15:16;100525.09;;;7.44;67.68
43621;BME280;29213;50.770;7.298;2023-11-21T06:17:44;100527.19;;;7.41;67.62
43621;BME280;29213;50.770;7.298;2023-11-21T06:20:14;100579.25;;;7.70;67.76
43621;BME280;29213;50.770;7.298;2023-11-21T06:22:41;100588.06;;;7.70;67.69
43621;BME280;29213;50.770;7.298;2023-11-21T06:25:07;100565.50;;;7.56;67.88
43621;BME280;29213;50.770;7.298;2023-11-21T06:27:36;100597.97;;;7.68;67.89
43621;BME280;29213;50.770;7.298;2023-11-21T06:30:02;100554.13;;;7.36;68.13
43621;BME280;29213;50.770;7.298;2023-11-21T06:32:29;100596.59;;;7.64;67.80
43621;BME280;29213;50.770;7.298;2023-11-21T06:34:58;100597.72;;;7.61;68.04
43621;BME280;29213;50.770;7.298;2023-11-21T06:37:29;100506.50;;;7.06;68.17
43621;BME280;29213;50.770;7.298;2023-11-21T06:39:56;100602.88;;;7.63;68.37
43621;BME280;29213;50.770;7.298;2023-11-21T06:42:22;100545.50;;;7.24;68.22
43621;BME280;29213;50.770;7.298;2023-11-21T06:44:49;100610.97;;;7.61;68.11
43621;BME280;29213;50.770;7.298;2023-11-21T06:47:17;100589.41;;;7.46;68.40
43621;BME280;29213;50.770;7.298;2023-11-21T06:49:43;100609.16;;;7.62;67.99
43621;BME280;29213;50.770;7.298;2023-11-21T06:52:09;100563.91;;;7.26;68.23
43621;BME280;29213;50.770;7.298;2023-11-21T06:54:34;100608.75;;;7.47;68.12
43621;BME280;29213;50.770;7.298;2023-11-21T06:57:00;100566.84;;;7.22;68.22
43621;BME280;29213;50.770;7.298;2023-11-21T06:59:26;100609.34;;;7.41;68.55
43621;BME280;29213;50.770;7.298;2023-11-21T07:01:53;100627.31;;;7.47;68.17
43621;BME280;29213;50.770;7.298;2023-11-21T07:04:19;100621.31;;;7.45;68.19
43621;BME280;29213;50.770;7.298;2023-11-21T07:06:45;100625.66;;;7.46;68.48
43621;BME280;29213;50.770;7.298;2023-11-21T07:09:10;100621.06;;;7.48;67.90
43621;BME280;29213;50.770;7.298;2023-11-21T07:11:37;100586.78;;;7.17;68.22
43621;BME280;29213;50.770;7.298;2023-11-21T07:14:03;100631.38;;;7.41;67.88
43621;BME280;29213;50.770;7.298;2023-11-21T07:16:36;100665.38;;;7.66;67.92
43621;BME280;29213;50.770;7.298;2023-11-21T07:19:06;100674.16;;;7.66;67.77
43621;BME280;29213;50.770;7.298;2023-11-21T07:21:33;100640.88;;;7.44;67.84
43621;BME280;29213;50.770;7.298;2023-11-21T07:24:00;100684.75;;;7.66;68.14
43621;BME280;29213;50.770;7.298;2023-11-21T07:26:27;100669.84;;;7.55;67.99
43621;BME280;29213;50.770;7.298;2023-11-21T07:28:53;100664.16;;;7.50;67.82
43621;BME280;29213;50.770;7.298;2023-11-21T07:31:18;100694.22;;;7.69;68.03
43621;BME280;29213;50.770;7.298;2023-11-21T07:33:47;100451.09;;;6.16;67.83
43621;BME280;29213;50.770;7.298;2023-11-21T07:36:14;100396.66;;;5.74;67.56
43621;BME280;29213;50.770;7.298;2023-11-21T07:42:13;100673.06;;;7.49;67.60
43621;BME280;29213;50.770;7.298;2023-11-21T07:44:38;100680.03;;;7.50;67.96
43621;BME280;29213;50.770;7.298;2023-11-21T07:47:04;100678.06;;;7.52;68.08
43621;BME280;29213;50.770;7.298;2023-11-21T07:49:29;100694.53;;;7.56;68.29
43621;BME280;29213;50.770;7.298;2023-11-21T07:51:55;100681.84;;;7.49;68.09
43621;BME280;29213;50.770;7.298;2023-11-21T07:54:20;100660.94;;;7.36;67.85
43621;BME280;29213;50.770;7.298;2023-11-21T07:56:46;100715.03;;;7.63;67.85
43621;BME280;29213;50.770;7.298;2023-11-21T07:59:12;100737.47;;;7.79;68.18
43621;BME280;29213;50.770;7.298;2023-11-21T08:01:39;100742.50;;;7.82;68.13
43621;BME280;29213;50.770;7.298;2023-11-21T08:04:05;100695.25;;;7.58;67.94
43621;BME280;29213;50.770;7.298;2023-11-21T08:06:32;100721.47;;;7.71;68.14
43621;BME280;29213;50.770;7.298;2023-11-21T08:08:58;100711.41;;;7.65;68.09
43621;BME280;29213;50.770;7.298;2023-11-21T08:11:24;100718.50;;;7.74;68.00
43621;BME280;29213;50.770;7.298;2023-11-21T08:13:49;100688.69;;;7.62;67.97
43621;BME280;29213;50.770;7.298;2023-11-21T08:16:15;100723.06;;;7.92;68.36
43621;BME280;29213;50.770;7.298;2023-11-21T08:18:41;100716.53;;;7.86;67.93
43621;BME280;29213;50.770;7.298;2023-11-21T08:21:07;100710.94;;;7.89;68.09
43621;BME280;29213;50.770;7.298;2023-11-21T08:23:33;100680.56;;;7.73;67.83
43621;BME280;29213;50.770;7.298;2023-11-21T08:25:59;100697.28;;;7.84;67.66
43621;BME280;29213;50.770;7.298;2023-11-21T08:28:25;100744.72;;;8.16;67.60
43621;BME280;29213;50.770;7.298;2023-11-21T08:30:54;100705.50;;;7.90;67.73
43621;BME280;29213;50.770;7.298;2023-11-21T08:33:19;100748.88;;;8.19;67.83
43621;BME280;29213;50.770;7.298;2023-11-21T08:35:45;100742.88;;;8.17;67.65
43621;BME280;29213;50.770;7.298;2023-11-21T08:38:11;100720.16;;;8.05;67.45
43621;BME280;29213;50.770;7.298;2023-11-21T08:40:38;100753.78;;;8.52;69.28
43621;BME280;29213;50.770;7.298;2023-11-21T08:43:03;100714.81;;;8.24;67.97
43621;BME280;29213;50.770;7.298;2023-11-21T08:45:33;100661.53;;;7.88;67.86
43621;BME280;29213;50.770;7.298;2023-11-21T08:48:00;100731.66;;;8.33;67.76
43621;BME280;29213;50.770;7.298;2023-11-21T08:50:25;100732.38;;;8.25;67.45
43621;BME280;29213;50.770;7.298;2023-11-21T08:52:51;100771.56;;;8.41;67.46
43621;BME280;29213;50.770;7.298;2023-11-21T08:55:16;100698.78;;;8.06;67.88
43621;BME280;29213;50.770;7.298;2023-11-21T08:57:43;100771.53;;;8.51;66.96
43621;BME280;29213;50.770;7.298;2023-11-21T09:00:10;100761.84;;;8.32;67.12
43621;BME280;29213;50.770;7.298;2023-11-21T09:02:37;100751.78;;;8.26;66.92
43621;BME280;29213;50.770;7.298;2023-11-21T09:05:04;100732.25;;;8.17;67.13
43621;BME280;29213;50.770;7.298;2023-11-21T09:07:29;100761.00;;;8.32;66.85
43621;BME280;29213;50.770;7.298;2023-11-21T09:09:55;100798.66;;;8.55;66.88
43621;BME280;29213;50.770;7.298;2023-11-21T09:12:21;100792.94;;;8.50;66.54
43621;BME280;29213;50.770;7.298;2023-11-21T09:14:47;100804.91;;;8.54;66.36
43621;BME280;29213;50.770;7.298;2023-11-21T09:17:12;100778.31;;;8.36;66.53
43621;BME280;29213;50.770;7.298;2023-11-21T09:19:38;100791.41;;;8.37;66.43
43621;BME280;29213;50.770;7.298;2023-11-21T09:22:04;100813.59;;;8.56;66.34
43621;BME280;29213;50.770;7.298;2023-11-21T09:24:31;100790.84;;;8.43;66.42
43621;BME280;29213;50.770;7.298;2023-11-21T09:26:56;100814.56;;;8.55;66.25
43621;BME280;29213;50.770;7.298;2023-11-21T09:29:22;100820.56;;;8.57;66.53
43621;BME280;29213;50.770;7.298;2023-11-21T09:31:47;100789.06;;;8.34;66.36
43621;BME280;29213;50.770;7.298;2023-11-21T09:34:13;100824.19;;;8.56;66.28
43621;BME280;29213;50.770;7.298;2023-11-21T09:36:38;100828.53;;;8.57;66.49
43621;BME280;29213;50.770;7.298;2023-11-21T09:39:04;100813.75;;;8.45;66.50
43621;BME280;29213;50.770;7.298;2023-11-21T09:41:43;100807.75;;;8.42;66.43
43621;BME280;29213;50.770;7.298;2023-11-21T09:44:13;100829.78;;;8.63;66.38
43621;BME280;29213;50.770;7.298;2023-11-21T09:46:42;100805.50;;;8.48;66.34
43621;BME280;29213;50.770;7.298;2023-11-21T09:49:11;100828.25;;;8.60;66.38
43621;BME280;29213;50.770;7.298;2023-11-21T09:51:39;100816.38;;;8.54;66.13
43621;BME280;29213;50.770;7.298;2023-11-21T09:54:09;100790.72;;;8.35;66.18
43621;BME280;29213;50.770;7.298;2023-11-21T09:56:36;100843.00;;;8.73;66.03
43621;BME280;29213;50.770;7.298;2023-11-21T09:59:03;100824.47;;;8.63;65.98
43621;BME280;29213;50.770;7.298;2023-11-21T10:01:36;100828.88;;;8.72;65.99
43621;BME280;29213;50.770;7.298;2023-11-21T10:04:01;100842.28;;;8.80;65.88
43621;BME280;29213;50.770;7.298;2023-11-21T10:06:28;100829.19;;;8.69;65.81
43621;BME280;29213;50.770;7.298;2023-11-21T10:08:55;100847.59;;;8.80;65.65
43621;BME280;29213;50.770;7.298;2023-11-21T10:11:24;100803.38;;;8.51;65.78
43621;BME280;29213;50.770;7.298;2023-11-21T10:13:54;100816.50;;;8.63;66.29
43621;BME280;29213;50.770;7.298;2023-11-21T10:16:19;100849.34;;;8.90;66.36
43621;BME280;29213;50.770;7.298;2023-11-21T10:18:48;100797.53;;;8.58;66.42
43621;BME280;29213;50.770;7.298;2023-11-21T10:21:18;100829.16;;;8.79;65.88
43621;BME280;29213;50.770;7.298;2023-11-21T10:23:43;100765.97;;;8.45;65.41
43621;BME280;29213;50.770;7.298;2023-11-21T10:26:11;100855.34;;;9.02;65.58
43621;BME280;29213;50.770;7.298;2023-11-21T10:28:54;100818.94;;;8.84;65.45
43621;BME280;29213;50.770;7.298;2023-11-21T10:31:20;100834.56;;;8.87;65.57
43621;BME280;29213;50.770;7.298;2023-11-21T10:33:46;100849.47;;;8.98;65.69
43621;BME280;29213;50.770;7.298;2023-11-21T10:36:11;100837.22;;;8.87;65.38
43621;BME280;29213;50.770;7.298;2023-11-21T10:38:42;100863.31;;;9.02;65.39
43621;BME280;29213;50.770;7.298;2023-11-21T10:41:11;100820.72;;;8.83;65.56
43621;BME280;29213;50.770;7.298;2023-11-21T10:43:38;100860.72;;;9.10;65.33
43621;BME280;29213;50.770;7.298;2023-11-21T10:46:04;100827.88;;;8.83;65.05
43621;BME280;29213;50.770;7.298;2023-11-21T10:48:31;100856.94;;;8.85;65.03
43621;BME280;29213;50.770;7.298;2023-11-21T10:50:57;100858.72;;;8.94;65.19
43621;BME280;29213;50.770;7.298;2023-11-21T10:53:22;100795.69;;;8.58;65.17
43621;BME280;29213;50.770;7.298;2023-11-21T10:55:49;100796.47;;;8.68;65.62
43621;BME280;29213;50.770;7.298;2023-11-21T10:58:14;100839.38;;;9.02;65.09
43621;BME280;29213;50.770;7.298;2023-11-21T11:00:40;100844.56;;;9.03;64.67
43621;BME280;29213;50.770;7.298;2023-11-21T11:03:06;100847.91;;;9.05;64.54
43621;BME280;29213;50.770;7.298;2023-11-21T11:05:38;100815.69;;;8.90;64.60
43621;BME280;29213;50.770;7.298;2023-11-21T11:08:08;100801.72;;;8.88;65.02
43621;BME280;29213;50.770;7.298;2023-11-21T11:10:33;100854.25;;;9.22;64.56
43621;BME280;29213;50.770;7.298;2023-11-21T11:13:00;100844.75;;;9.20;64.50
43621;BME280;29213;50.770;7.298;2023-11-21T11:15:27;100874.00;;;9.38;63.99
43621;BME280;29213;50.770;7.298;2023-11-21T11:17:54;100853.53;;;9.30;64.01
43621;BME280;29213;50.770;7.298;2023-11-21T11:20:24;100853.59;;;9.39;63.82
43621;BME280;29213;50.770;7.298;2023-11-21T11:23:10;100867.25;;;9.54;63.97
43621;BME280;29213;50.770;7.298;2023-11-21T11:25:52;100871.28;;;9.58;63.62
43621;BME280;29213;50.770;7.298;2023-11-21T11:28:21;100854.41;;;9.49;63.47
43621;BME280;29213;50.770;7.298;2023-11-21T11:31:04;100854.66;;;9.46;63.78
43621;BME280;29213;50.770;7.298;2023-11-21T11:33:42;100866.56;;;9.52;63.50
43621;BME280;29213;50.770;7.298;2023-11-21T11:36:37;100877.59;;;9.57;63.62
43621;BME280;29213;50.770;7.298;2023-11-21T11:39:29;100885.19;;;9.52;63.75
43621;BME280;29213;50.770;7.298;2023-11-21T11:41:58;100873.72;;;9.41;63.76
43621;BME280;29213;50.770;7.298;2023-11-21T11:44:47;100892.75;;;9.46;63.82
43621;BME280;29213;50.770;7.298;2023-11-21T11:47:29;100880.19;;;9.39;64.08
43621;BME280;29213;50.770;7.298;2023-11-21T11:50:09;100896.09;;;9.48;63.98
43621;BME280;29213;50.770;7.298;2023-11-21T11:52:45;100880.03;;;9.40;63.94
43621;BME280;29213;50.770;7.298;2023-11-21T11:55:13;100899.47;;;9.51;63.90
43621;BME280;29213;50.770;7.298;2023-11-21T11:57:40;100899.19;;;9.44;63.92
43621;BME280;29213;50.770;7.298;2023-11-21T12:00:16;100891.34;;;9.42;64.10
43621;BME280;29213;50.770;7.298;2023-11-21T12:02:44;100898.34;;;9.43;64.05
43621;BME280;29213;50.770;7.298;2023-11-21T12:05:15;100872.94;;;9.31;64.21
43621;BME280;29213;50.770;7.298;2023-11-21T12:07:45;100830.16;;;9.06;64.02
43621;BME280;29213;50.770;7.298;2023-11-21T12:10:13;100853.66;;;9.29;63.97
43621;BME280;29213;50.770;7.298;2023-11-21T12:12:47;100891.31;;;9.52;63.79
43621;BME280;29213;50.770;7.298;2023-11-21T12:15:13;100867.88;;;9.38;63.21
43621;BME280;29213;50.770;7.298;2023-11-21T12:17:41;100852.59;;;9.21;63.69
43621;BME280;29213;50.770;7.298;2023-11-21T12:20:07;100839.44;;;9.20;63.51
43621;BME280;29213;50.770;7.298;2023-11-21T12:22:49;100903.56;;;9.63;63.67
43621;BME280;29213;50.770;7.298;2023-11-21T12:25:18;100910.09;;;9.69;63.44
43621;BME280;29213;50.770;7.298;2023-11-21T12:27:49;100823.66;;;9.18;63.29
43621;BME280;29213;50.770;7.298;2023-11-21T12:30:16;100908.44;;;9.68;63.39
43621;BME280;29213;50.770;7.298;2023-11-21T12:32:49;100910.56;;;9.64;63.45
43621;BME280;29213;50.770;7.298;2023-11-21T12:35:15;100913.75;;;9.68;63.38
43621;BME280;29213;50.770;7.298;2023-11-21T12:37:45;100923.13;;;9.72;63.49
43621;BME280;29213;50.770;7.298;2023-11-21T12:40:11;100918.25;;;9.67;62.63
43621;BME280;29213;50.770;7.298;2023-11-21T12:42:47;100914.22;;;9.63;63.15
43621;BME280;29213;50.770;7.298;2023-11-21T12:47:50;100889.22;;;9.46;63.05
43621;BME280;29213;50.770;7.298;2023-11-21T12:50:19;100871.59;;;9.45;62.89
43621;BME280;29213;50.770;7.298;2023-11-21T12:52:52;100862.84;;;9.34;62.58
43621;BME280;29213;50.770;7.298;2023-11-21T12:55:22;100899.00;;;9.55;62.95
43621;BME280;29213;50.770;7.298;2023-11-21T12:57:55;100829.63;;;9.20;62.79
43621;BME280;29213;50.770;7.298;2023-11-21T13:00:47;100808.97;;;9.14;62.73
43621;BME280;29213;50.770;7.298;2023-11-21T13:03:15;100879.25;;;9.58;62.52
43621;BME280;29213;50.770;7.298;2023-11-21T13:05:51;100835.19;;;9.27;62.12